createdAt,value
2022-08-09T00:00:46.077Z,33.37
2022-08-09T00:02:51.425Z,33.35
2022-08-09T00:05:03.064Z,33.34
2022-08-09T00:07:17.685Z,33.31
2022-08-09T00:09:21.128Z,33.53
2022-08-09T00:11:27.596Z,33.73
2022-08-09T00:13:31.625Z,33.69
2022-08-09T00:15:57.932Z,33.67
2022-08-09T00:18:05.797Z,33.68
2022-08-09T00:20:15.169Z,33.79
2022-08-09T00:22:18.287Z,34.09
2022-08-09T00:24:21.254Z,33.97
2022-08-09T00:26:32.121Z,34.12
2022-08-09T00:28:36.997Z,33.97
2022-08-09T00:30:41.210Z,34.30
2022-08-09T00:32:44.882Z,33.65
2022-08-09T00:34:52.173Z,33.67
2022-08-09T00:36:55.738Z,33.67
2022-08-09T00:39:00.146Z,33.88
2022-08-09T00:41:03.274Z,33.83
2022-08-09T00:44:10.202Z,33.52
2022-08-09T00:45:34.809Z,33.86
2022-08-09T00:47:39.919Z,33.78
2022-08-09T00:49:43.859Z,33.76
2022-08-09T00:51:58.728Z,34.11
2022-08-09T00:54:08.072Z,34.09
2022-08-09T00:56:12.831Z,34.44
2022-08-09T00:58:25.430Z,34.32
2022-08-09T01:00:31.179Z,34.60
2022-08-09T01:02:43.735Z,34.82
2022-08-09T01:04:52.968Z,35.04
2022-08-09T01:07:03.629Z,35.03
2022-08-09T01:09:15.883Z,35.03
2022-08-09T01:11:29.327Z,34.98
2022-08-09T01:13:41.901Z,35.38
2022-08-09T01:15:58.407Z,35.49
2022-08-09T01:18:08.559Z,35.48
2022-08-09T01:20:17.819Z,35.38
2022-08-09T01:22:51.977Z,35.71
2022-08-09T01:25:01.799Z,35.66
2022-08-09T01:27:09.847Z,35.87
2022-08-09T01:29:15.356Z,35.86
2022-08-09T01:32:29.121Z,35.85
2022-08-09T01:33:48.752Z,36.12
2022-08-09T01:35:57.259Z,36.28
2022-08-09T01:38:10.511Z,36.41
2022-08-09T01:40:23.272Z,36.24
2022-08-09T01:42:36.005Z,36.39
2022-08-09T01:44:41.260Z,36.55
2022-08-09T01:46:46.954Z,36.57
2022-08-09T01:48:52.573Z,36.74
2022-08-09T01:50:56.886Z,36.58
2022-08-09T01:53:02.098Z,36.70
2022-08-09T01:55:26.067Z,36.72
2022-08-09T01:57:40.075Z,36.64
2022-08-09T01:59:52.559Z,36.84
2022-08-09T02:02:01.039Z,36.64
2022-08-09T02:04:06.091Z,36.78
2022-08-09T02:06:13.064Z,36.82
2022-08-09T02:08:40.051Z,36.84
2022-08-09T02:10:51.268Z,36.90
2022-08-09T02:12:58.017Z,36.98
2022-08-09T02:15:06.400Z,37.03
2022-08-09T02:17:55.081Z,37.07
2022-08-09T02:19:39.106Z,37.02
2022-08-09T02:21:55.230Z,37.10
2022-08-09T02:24:01.968Z,37.14
2022-08-09T02:26:07.517Z,37.42
2022-08-09T02:28:35.267Z,37.54
2022-08-09T02:30:42.286Z,37.72
2022-08-09T02:32:48.342Z,37.76
2022-08-09T02:35:00.479Z,37.73
2022-08-09T02:37:16.189Z,37.81
2022-08-09T02:39:39.740Z,37.85
2022-08-09T02:41:46.967Z,38.11
2022-08-09T02:43:55.458Z,38.20
2022-08-09T02:46:02.499Z,38.30
2022-08-09T02:48:12.280Z,38.53
2022-08-09T02:50:27.215Z,38.53
2022-08-09T02:52:38.792Z,38.58
2022-08-09T02:54:53.928Z,38.76
2022-08-09T02:57:01.864Z,38.80
2022-08-09T02:59:26.485Z,39.08
2022-08-09T03:01:58.743Z,39.06
2022-08-09T03:04:18.134Z,39.44
2022-08-09T03:06:25.039Z,39.62
2022-08-09T03:08:31.866Z,39.56
2022-08-09T03:10:37.362Z,39.78
2022-08-09T03:12:40.995Z,39.65
2022-08-09T03:14:46.290Z,39.74
2022-08-09T03:16:49.834Z,40.08
2022-08-09T03:18:53.332Z,40.19
2022-08-09T03:21:01.083Z,40.00
2022-08-09T03:23:14.735Z,39.89
2022-08-09T03:25:26.933Z,40.10
2022-08-09T03:27:44.981Z,40.13
2022-08-09T03:29:57.697Z,40.36
2022-08-09T03:32:05.539Z,40.43
2022-08-09T03:34:13.086Z,40.48
2022-08-09T03:36:17.380Z,40.52
2022-08-09T03:38:28.841Z,40.60
2022-08-09T03:40:33.311Z,40.82
2022-08-09T03:42:37.004Z,40.44
2022-08-09T03:44:39.853Z,40.48
2022-08-09T03:46:44.846Z,40.57
2022-08-09T03:48:54.115Z,40.64
2022-08-09T03:50:58.574Z,40.38
2022-08-09T03:53:05.141Z,40.33
2022-08-09T03:55:10.496Z,40.48
2022-08-09T03:57:20.922Z,40.87
2022-08-09T03:59:42.813Z,40.45
2022-08-09T04:01:50.728Z,40.50
2022-08-09T04:04:01.120Z,40.52
2022-08-09T04:06:06.185Z,40.69
2022-08-09T04:08:10.385Z,40.37
2022-08-09T04:10:13.263Z,40.76
2022-08-09T04:12:37.115Z,40.72
2022-08-09T04:15:00.998Z,41.14
2022-08-09T04:17:06.287Z,41.04
2022-08-09T04:19:10.984Z,41.19
2022-08-09T04:21:18.956Z,41.21
2022-08-09T04:23:23.158Z,41.09
2022-08-09T04:25:26.167Z,41.33
2022-08-09T04:27:29.631Z,41.39
2022-08-09T04:29:32.488Z,41.25
2022-08-09T04:31:37.514Z,41.17
2022-08-09T04:33:56.766Z,41.37
2022-08-09T04:36:02.078Z,41.21
2022-08-09T04:38:05.918Z,41.46
2022-08-09T04:40:10.446Z,41.48
2022-08-09T04:42:15.712Z,41.53
2022-08-09T04:44:18.850Z,41.63
2022-08-09T04:46:57.636Z,41.72
2022-08-09T04:48:57.414Z,41.80
2022-08-09T04:51:02.543Z,41.73
2022-08-09T04:53:13.292Z,41.77
2022-08-09T04:55:16.547Z,42.10
2022-08-09T04:57:23.972Z,41.71
2022-08-09T04:59:30.221Z,41.47
2022-08-09T05:01:33.403Z,41.42
2022-08-09T05:03:42.395Z,41.16
2022-08-09T05:05:52.106Z,40.77
2022-08-09T05:07:57.421Z,40.77
2022-08-09T05:10:01.724Z,40.96
2022-08-09T05:12:05.658Z,40.91
2022-08-09T05:14:08.520Z,40.96
2022-08-09T05:16:12.171Z,40.38
2022-08-09T05:18:42.348Z,41.06
2022-08-09T05:20:40.821Z,40.93
2022-08-09T05:23:55.003Z,41.00
2022-08-09T05:25:09.085Z,41.00
2022-08-09T05:27:13.418Z,40.88
2022-08-09T05:29:22.037Z,40.56
2022-08-09T05:31:44.289Z,40.62
2022-08-09T05:33:49.645Z,40.44
2022-08-09T05:35:53.035Z,40.59
2022-08-09T05:37:57.053Z,40.41
2022-08-09T05:40:01.212Z,40.54
2022-08-09T05:42:06.067Z,40.44
2022-08-09T05:44:09.038Z,39.73
2022-08-09T05:46:15.598Z,39.05
2022-08-09T05:48:18.443Z,39.52
2022-08-09T05:50:50.551Z,39.03
2022-08-09T05:52:53.788Z,38.58
2022-08-09T05:54:57.046Z,38.28
2022-08-09T05:57:12.540Z,38.81
2022-08-09T05:59:17.047Z,38.86
2022-08-09T06:01:20.501Z,38.90
2022-08-09T06:03:24.734Z,38.79
2022-08-09T06:05:57.495Z,38.82
2022-08-09T06:08:07.831Z,38.75
2022-08-09T06:10:15.737Z,39.11
2022-08-09T06:12:20.225Z,38.62
2022-08-09T06:14:23.263Z,38.57
2022-08-09T06:16:26.750Z,38.14
2022-08-09T06:18:29.584Z,38.01
2022-08-09T06:20:33.515Z,38.09
2022-08-09T06:22:36.719Z,38.44
2022-08-09T06:24:39.876Z,38.26
2022-08-09T06:26:43.620Z,37.67
2022-08-09T06:28:49.917Z,37.97
2022-08-09T06:31:04.069Z,38.39
2022-08-09T06:33:29.943Z,38.32
2022-08-09T06:35:35.607Z,37.93
2022-08-09T06:38:06.298Z,37.73
2022-08-09T06:40:16.348Z,37.67
2022-08-09T06:42:28.521Z,37.99
2022-08-09T06:44:34.958Z,37.82
2022-08-09T06:46:39.579Z,37.56
2022-08-09T06:48:43.654Z,37.31
2022-08-09T06:50:46.744Z,37.62
2022-08-09T06:52:49.636Z,37.74
2022-08-09T06:54:54.110Z,37.78
2022-08-09T06:56:57.355Z,37.15
2022-08-09T07:00:51.171Z,36.82
2022-08-09T07:01:27.562Z,37.52
2022-08-09T07:03:39.743Z,37.22
2022-08-09T07:06:04.433Z,37.54
2022-08-09T07:08:08.095Z,36.78
2022-08-09T07:10:22.404Z,36.89
2022-08-09T07:12:38.607Z,36.84
2022-08-09T07:14:44.097Z,36.65
2022-08-09T07:16:55.322Z,36.96
2022-08-09T07:19:00.679Z,37.25
2022-08-09T07:21:03.647Z,36.85
2022-08-09T07:23:19.600Z,37.20
2022-08-09T07:25:22.819Z,36.88
2022-08-09T07:27:34.424Z,36.32
2022-08-09T07:29:46.108Z,36.60
2022-08-09T07:31:51.227Z,36.80
2022-08-09T07:33:56.100Z,36.08
2022-08-09T07:36:02.970Z,36.47
2022-08-09T07:38:05.845Z,35.20
2022-08-09T07:40:12.881Z,35.54
2022-08-09T07:42:18.229Z,36.02
2022-08-09T07:44:24.262Z,35.94
2022-08-09T07:46:44.665Z,35.84
2022-08-09T07:48:58.892Z,35.92
2022-08-09T07:52:03.381Z,35.95
2022-08-09T07:54:01.763Z,35.17
2022-08-09T07:56:06.454Z,35.28
2022-08-09T07:58:13.335Z,35.56
2022-08-09T08:00:20.265Z,35.53
2022-08-09T08:02:42.696Z,35.48
2022-08-09T08:04:48.549Z,34.98
2022-08-09T08:06:56.219Z,34.73
2022-08-09T08:09:07.557Z,35.10
2022-08-09T08:12:11.531Z,35.29
2022-08-09T08:13:55.885Z,34.60
2022-08-09T08:16:00.398Z,34.27
2022-08-09T08:18:03.695Z,34.32
2022-08-09T08:20:12.863Z,34.13
2022-08-09T08:22:16.384Z,34.44
2022-08-09T08:24:19.824Z,34.43
2022-08-09T08:26:26.594Z,34.25
2022-08-09T08:28:44.638Z,34.21
2022-08-09T08:30:47.845Z,33.83
2022-08-09T08:32:52.494Z,33.28
2022-08-09T08:34:58.557Z,33.19
2022-08-09T08:37:03.026Z,32.88
2022-08-09T08:39:06.237Z,33.65
2022-08-09T08:41:14.025Z,33.93
2022-08-09T08:43:18.126Z,33.56
2022-08-09T08:45:37.493Z,32.53
2022-08-09T08:47:42.672Z,32.98
2022-08-09T08:49:48.920Z,33.46
2022-08-09T08:52:01.818Z,33.25
2022-08-09T08:54:11.686Z,33.25
2022-08-09T08:56:25.224Z,33.46
2022-08-09T08:58:33.483Z,33.12
2022-08-09T09:00:39.924Z,33.12
2022-08-09T09:02:44.274Z,32.45
2022-08-09T09:04:54.375Z,32.09
2022-08-09T09:06:58.903Z,32.38
2022-08-09T09:09:06.889Z,32.29
2022-08-09T09:11:28.847Z,32.36
2022-08-09T09:13:54.880Z,31.87
2022-08-09T09:15:58.826Z,32.34
2022-08-09T09:18:01.708Z,31.67
2022-08-09T09:20:08.532Z,32.05
2022-08-09T09:22:16.116Z,32.57
2022-08-09T09:24:21.726Z,32.33
2022-08-09T09:26:26.338Z,31.58
2022-08-09T09:29:02.610Z,31.52
2022-08-09T09:31:00.081Z,31.76
2022-08-09T09:33:16.194Z,31.39
2022-08-09T09:35:20.027Z,31.82
2022-08-09T09:37:31.679Z,31.51
2022-08-09T09:39:50.276Z,31.16
2022-08-09T09:42:00.731Z,31.49
2022-08-09T09:44:11.055Z,31.23
2022-08-09T09:48:38.765Z,29.82
2022-08-09T09:50:49.758Z,29.59
2022-08-09T09:52:56.362Z,29.67
2022-08-09T09:55:07.898Z,29.02
2022-08-09T09:58:03.391Z,29.44
2022-08-09T09:59:47.725Z,30.12
2022-08-09T10:02:00.256Z,29.63
2022-08-09T10:04:09.509Z,28.78
2022-08-09T10:06:13.600Z,28.21
2022-08-09T10:08:28.440Z,28.57
2022-08-09T10:10:31.967Z,28.79
2022-08-09T10:12:43.523Z,29.07
2022-08-09T10:14:53.627Z,29.36
2022-08-09T10:17:05.370Z,29.30
2022-08-09T10:19:19.890Z,29.43
2022-08-09T10:21:26.875Z,28.99
2022-08-09T10:23:29.953Z,28.37
2022-08-09T10:26:06.766Z,28.21
2022-08-09T10:28:02.001Z,28.43
2022-08-09T10:30:43.697Z,28.39
2022-08-09T10:32:42.727Z,28.51
2022-08-09T10:34:47.574Z,27.88
2022-08-09T10:36:56.624Z,27.28
2022-08-09T10:39:00.518Z,26.57
2022-08-09T10:41:04.126Z,26.27
2022-08-09T10:43:08.924Z,27.04
2022-08-09T10:45:16.684Z,27.17
2022-08-09T10:48:17.473Z,26.40
2022-08-09T10:50:06.627Z,25.54
2022-08-09T10:52:26.691Z,26.38
2022-08-09T10:54:30.210Z,25.92
2022-08-09T10:56:34.707Z,26.53
2022-08-09T10:58:39.177Z,25.52
2022-08-09T11:01:10.788Z,25.72
2022-08-09T11:03:46.870Z,25.58
2022-08-09T11:06:16.807Z,25.33
2022-08-09T11:08:47.095Z,24.88
2022-08-09T11:10:56.478Z,25.90
2022-08-09T11:13:49.115Z,25.30
2022-08-09T11:15:50.982Z,25.09
2022-08-09T11:18:05.193Z,25.52
2022-08-09T11:20:22.649Z,25.71
2022-08-09T11:23:10.396Z,25.64
2022-08-09T11:25:15.134Z,25.65
2022-08-09T11:28:05.433Z,24.96
2022-08-09T11:30:05.022Z,25.22
2022-08-09T11:32:44.475Z,25.37
2022-08-09T11:34:51.429Z,25.35
2022-08-09T11:36:56.896Z,24.47
2022-08-09T11:39:02.073Z,25.39
2022-08-09T11:41:28.281Z,25.93
2022-08-09T11:43:44.312Z,25.37
2022-08-09T11:45:55.762Z,23.64
2022-08-09T11:48:11.136Z,23.74
2022-08-09T11:50:56.077Z,24.06
2022-08-09T11:54:01.146Z,24.57
2022-08-09T11:55:52.613Z,24.50
2022-08-09T11:58:06.433Z,23.08
2022-08-09T12:00:16.359Z,23.68
2022-08-09T12:02:34.769Z,23.96
2022-08-09T12:04:44.120Z,23.29
2022-08-09T12:06:55.651Z,22.89
2022-08-09T12:08:59.194Z,23.23
2022-08-09T12:11:04.197Z,23.23
2022-08-09T12:14:09.407Z,22.65
2022-08-09T12:15:52.748Z,23.15
2022-08-09T12:17:56.033Z,22.83
2022-08-09T12:20:03.719Z,22.84
2022-08-09T12:22:08.091Z,23.14
2022-08-09T12:24:22.095Z,23.09
2022-08-09T12:26:27.022Z,22.20
2022-08-09T12:29:11.081Z,22.62
2022-08-09T12:30:53.576Z,22.38
2022-08-09T12:33:02.530Z,23.05
2022-08-09T12:35:12.291Z,23.17
2022-08-09T12:37:23.573Z,22.80
2022-08-09T12:39:27.645Z,22.27
2022-08-09T12:41:39.752Z,23.13
2022-08-09T12:44:06.068Z,22.08
2022-08-09T12:46:07.195Z,22.55
2022-08-09T12:48:29.890Z,22.99
2022-08-09T12:50:38.751Z,22.92
2022-08-09T12:53:17.402Z,23.02
2022-08-09T12:56:14.329Z,22.91
2022-08-09T12:57:39.522Z,22.82
2022-08-09T12:59:57.626Z,22.93
2022-08-09T13:02:07.267Z,22.08
2022-08-09T13:04:33.270Z,22.60
2022-08-09T13:06:40.839Z,22.88
2022-08-09T13:08:58.991Z,22.48
2022-08-09T13:11:13.123Z,22.43
2022-08-09T13:14:01.027Z,22.39
2022-08-09T13:15:57.474Z,21.87
2022-08-09T13:18:05.802Z,22.78
2022-08-09T13:20:16.047Z,21.90
2022-08-09T13:23:00.507Z,22.01
2022-08-09T13:25:03.583Z,22.02
2022-08-09T13:27:25.235Z,22.65
2022-08-09T13:30:02.459Z,22.68
2022-08-09T13:32:17.051Z,22.33
2022-08-09T13:34:20.370Z,21.72
2022-08-09T13:36:42.632Z,22.21
2022-08-09T13:38:56.556Z,22.48
2022-08-09T13:41:55.829Z,22.12
2022-08-09T13:43:35.949Z,21.88
2022-08-09T13:46:44.513Z,21.89
2022-08-09T13:48:05.588Z,21.94
2022-08-09T13:50:29.940Z,21.43
2022-08-09T13:52:34.732Z,21.97
2022-08-09T13:54:41.671Z,21.46
2022-08-09T13:56:47.036Z,20.98
2022-08-09T13:58:51.955Z,21.08
2022-08-09T14:00:54.781Z,20.82
2022-08-09T14:03:03.060Z,21.18
2022-08-09T14:05:56.478Z,21.23
2022-08-09T14:07:42.456Z,21.00
2022-08-09T14:09:47.048Z,21.00
2022-08-09T14:11:58.677Z,21.05
2022-08-09T14:14:23.074Z,20.57
2022-08-09T14:16:28.574Z,21.17
2022-08-09T14:18:32.330Z,21.28
2022-08-09T14:20:35.841Z,20.25
2022-08-09T14:22:38.683Z,20.23
2022-08-09T14:24:53.401Z,20.46
2022-08-09T14:26:58.338Z,20.75
2022-08-09T14:29:03.414Z,20.92
2022-08-09T14:31:06.534Z,20.47
2022-08-09T14:33:11.474Z,20.19
2022-08-09T14:35:14.749Z,20.40
2022-08-09T14:37:20.902Z,20.37
2022-08-09T14:39:47.537Z,20.69
2022-08-09T14:41:51.376Z,20.54
2022-08-09T14:43:55.541Z,20.67
2022-08-09T14:46:46.046Z,20.26
2022-08-09T14:48:21.397Z,20.70
2022-08-09T14:50:31.579Z,20.55
2022-08-09T14:52:36.380Z,21.25
2022-08-09T14:54:39.332Z,20.61
2022-08-09T14:56:58.289Z,20.43
2022-08-09T14:59:03.523Z,19.63
2022-08-09T15:01:11.479Z,20.89
2022-08-09T15:03:16.639Z,20.12
2022-08-09T15:05:23.146Z,19.88
2022-08-09T15:07:26.013Z,19.78
2022-08-09T15:10:07.627Z,20.66
2022-08-09T15:11:56.537Z,20.71
2022-08-09T15:14:04.434Z,20.44
2022-08-09T15:16:10.402Z,21.01
2022-08-09T15:18:14.224Z,21.04
2022-08-09T15:22:01.174Z,20.57
2022-08-09T15:22:46.401Z,20.78
2022-08-09T15:24:50.146Z,20.58
2022-08-09T15:26:55.594Z,20.38
2022-08-09T15:28:58.466Z,20.40
2022-08-09T15:31:09.876Z,20.45
2022-08-09T15:33:28.015Z,19.82
2022-08-09T15:35:43.377Z,20.12
2022-08-09T15:37:56.892Z,20.64
2022-08-09T15:40:14.016Z,20.36
2022-08-09T15:42:18.845Z,20.76
2022-08-09T15:44:22.970Z,20.02
2022-08-09T15:46:33.228Z,20.40
2022-08-09T15:48:38.476Z,20.03
2022-08-09T15:50:46.075Z,20.08
2022-08-09T15:52:54.905Z,20.50
2022-08-09T15:55:12.147Z,20.01
2022-08-09T15:57:15.304Z,20.73
2022-08-09T15:59:37.802Z,21.03
2022-08-09T16:01:40.660Z,20.80
2022-08-09T16:03:47.168Z,20.51
2022-08-09T16:05:56.725Z,20.18
2022-08-09T16:08:06.306Z,20.25
2022-08-09T16:10:56.234Z,20.34
2022-08-09T16:12:50.265Z,19.99
2022-08-09T16:14:53.527Z,19.91
2022-08-09T16:16:57.323Z,20.67
2022-08-09T16:19:03.121Z,20.82
2022-08-09T16:21:06.558Z,20.41
2022-08-09T16:23:10.229Z,20.55
2022-08-09T16:25:15.671Z,20.60
2022-08-09T16:27:18.985Z,20.48
2022-08-09T16:29:22.004Z,21.35
2022-08-09T16:32:20.132Z,21.07
2022-08-09T16:34:07.876Z,21.45
2022-08-09T16:36:15.956Z,21.73
2022-08-09T16:38:21.752Z,21.84
2022-08-09T16:40:39.958Z,21.85
2022-08-09T16:42:45.328Z,21.74
2022-08-09T16:44:48.618Z,22.31
2022-08-09T16:46:55.267Z,21.49
2022-08-09T16:49:16.825Z,21.76
2022-08-09T16:51:22.002Z,21.51
2022-08-09T16:53:25.105Z,21.76
2022-08-09T16:55:59.987Z,22.08
2022-08-09T16:58:09.322Z,22.10
2022-08-09T17:00:14.842Z,21.65
2022-08-09T17:02:17.979Z,21.99
2022-08-09T17:04:28.655Z,21.65
2022-08-09T17:06:33.499Z,22.07
2022-08-09T17:09:01.432Z,22.30
2022-08-09T17:11:08.259Z,22.29
2022-08-09T17:13:14.178Z,22.28
2022-08-09T17:15:31.283Z,21.79
2022-08-09T17:17:50.937Z,21.60
2022-08-09T17:20:33.169Z,21.91
2022-08-09T17:22:23.967Z,21.79
2022-08-09T17:24:32.109Z,21.65
2022-08-09T17:26:38.293Z,22.32
2022-08-09T17:28:42.517Z,21.89
2022-08-09T17:30:47.801Z,22.11
2022-08-09T17:32:51.044Z,21.91
2022-08-09T17:35:07.859Z,22.00
2022-08-09T17:37:19.365Z,21.73
2022-08-09T17:39:24.981Z,21.74
2022-08-09T17:41:38.828Z,22.09
2022-08-09T17:43:45.708Z,22.02
2022-08-09T17:46:02.920Z,21.97
2022-08-09T17:48:08.647Z,22.40
2022-08-09T17:50:17.305Z,22.35
2022-08-09T17:52:37.317Z,21.98
2022-08-09T17:54:40.280Z,22.30
2022-08-09T17:56:44.175Z,22.17
2022-08-09T17:58:47.954Z,22.43
2022-08-09T18:00:50.871Z,22.32
2022-08-09T18:02:58.942Z,22.50
2022-08-09T18:05:03.095Z,22.67
2022-08-09T18:07:07.975Z,22.46
2022-08-09T18:09:10.966Z,22.24
2022-08-09T18:11:23.792Z,22.46
2022-08-09T18:13:38.977Z,22.40
2022-08-09T18:16:05.165Z,22.28
2022-08-09T18:18:25.350Z,22.65
2022-08-09T18:20:55.000Z,23.09
2022-08-09T18:22:53.806Z,22.97
2022-08-09T18:24:57.082Z,22.62
2022-08-09T18:27:01.117Z,23.10
2022-08-09T18:30:37.644Z,22.93
2022-08-09T18:31:32.403Z,22.86
2022-08-09T18:33:53.278Z,22.93
2022-08-09T18:36:00.176Z,22.86
2022-08-09T18:38:04.899Z,23.26
2022-08-09T18:40:09.144Z,23.22
2022-08-09T18:42:12.393Z,23.46
2022-08-09T18:44:15.226Z,23.58
2022-08-09T18:46:51.089Z,23.34
2022-08-09T18:48:42.403Z,23.38
2022-08-09T18:50:45.690Z,23.49
2022-08-09T18:52:50.954Z,23.44
2022-08-09T18:54:55.283Z,23.77
2022-08-09T18:57:05.556Z,23.49
2022-08-09T18:59:09.481Z,23.64
2022-08-09T19:01:12.371Z,23.71
2022-08-09T19:03:15.928Z,24.14
2022-08-09T19:05:28.745Z,24.12
2022-08-09T19:07:43.252Z,24.08
2022-08-09T19:10:15.568Z,23.97
2022-08-09T19:12:21.147Z,24.13
2022-08-09T19:14:29.418Z,24.32
2022-08-09T19:16:36.582Z,23.99
2022-08-09T19:18:45.409Z,24.23
2022-08-09T19:20:52.304Z,23.96
2022-08-09T19:23:01.408Z,24.36
2022-08-09T19:25:41.726Z,24.55
2022-08-09T19:27:31.071Z,24.61
2022-08-09T19:29:38.129Z,24.62
2022-08-09T19:32:00.038Z,24.66
2022-08-09T19:34:03.040Z,24.87
2022-08-09T19:36:13.311Z,25.08
2022-08-09T19:38:16.442Z,24.78
2022-08-09T19:40:21.976Z,25.34
2022-08-09T19:42:28.327Z,25.19
2022-08-09T19:44:31.367Z,25.31
2022-08-09T19:46:51.031Z,25.49
2022-08-09T19:49:00.694Z,25.44
2022-08-09T19:51:06.021Z,25.81
2022-08-09T19:53:09.168Z,25.93
2022-08-09T19:55:15.580Z,26.21
2022-08-09T19:57:19.910Z,26.59
2022-08-09T19:59:57.982Z,25.98
2022-08-09T20:02:04.629Z,25.94
2022-08-09T20:04:22.187Z,26.29
2022-08-09T20:06:34.481Z,26.81
2022-08-09T20:08:38.555Z,26.94
2022-08-09T20:10:42.245Z,26.56
2022-08-09T20:12:51.891Z,26.55
2022-08-09T20:14:54.996Z,26.38
2022-08-09T20:16:57.880Z,26.32
2022-08-09T20:19:04.060Z,26.32
2022-08-09T20:21:40.693Z,26.33
2022-08-09T20:23:46.876Z,26.48
2022-08-09T20:25:51.994Z,26.50
2022-08-09T20:27:57.386Z,26.50
2022-08-09T20:30:01.052Z,26.35
2022-08-09T20:32:29.086Z,26.31
2022-08-09T20:34:29.198Z,26.23
2022-08-09T20:36:32.047Z,26.45
2022-08-09T20:39:18.568Z,26.41
2022-08-09T20:41:02.234Z,26.53
2022-08-09T20:43:12.165Z,26.83
2022-08-09T20:46:01.157Z,26.93
2022-08-09T20:47:48.226Z,27.09
2022-08-09T20:49:52.289Z,26.80
2022-08-09T20:51:55.179Z,26.85
2022-08-09T20:53:59.326Z,26.53
2022-08-09T20:56:09.316Z,26.69
2022-08-09T20:58:24.795Z,27.10
2022-08-09T21:00:35.459Z,27.54
2022-08-09T21:02:38.393Z,27.27
2022-08-09T21:05:51.829Z,27.29
2022-08-09T21:07:11.942Z,27.39
2022-08-09T21:09:24.806Z,27.59
2022-08-09T21:14:00.544Z,27.26
2022-08-09T21:16:04.153Z,27.49
2022-08-09T21:18:27.457Z,27.93
2022-08-09T21:20:31.089Z,28.30
2022-08-09T21:22:36.298Z,28.45
2022-08-09T21:24:55.979Z,28.48
2022-08-09T21:26:59.956Z,28.54
2022-08-09T21:29:14.655Z,28.46
2022-08-09T21:31:48.748Z,28.41
2022-08-09T21:33:52.128Z,28.60
2022-08-09T21:35:55.756Z,28.59
2022-08-09T21:38:02.692Z,28.68
2022-08-09T21:40:10.806Z,28.71
2022-08-09T21:42:14.458Z,28.45
2022-08-09T21:44:33.483Z,28.40
2022-08-09T21:46:37.893Z,28.11
2022-08-09T21:48:42.720Z,28.18
2022-08-09T21:50:51.983Z,28.35
2022-08-09T21:52:56.359Z,28.24
2022-08-09T21:55:04.255Z,28.27
2022-08-09T21:57:37.206Z,28.64
2022-08-09T21:59:42.504Z,28.52
2022-08-09T22:02:00.632Z,28.32
2022-08-09T22:04:05.039Z,28.23
2022-08-09T22:06:08.327Z,28.42
2022-08-09T22:08:14.746Z,28.03
2022-08-09T22:10:22.798Z,28.33
2022-08-09T22:12:31.274Z,28.46
2022-08-09T22:14:36.386Z,28.35
2022-08-09T22:16:39.221Z,28.77
2022-08-09T22:18:53.594Z,28.40
2022-08-09T22:20:57.841Z,28.45
2022-08-09T22:23:01.032Z,28.45
2022-08-09T22:26:05.279Z,28.82
2022-08-09T22:27:31.376Z,28.88
2022-08-09T22:29:50.186Z,28.93
2022-08-09T22:31:57.292Z,28.85
2022-08-09T22:34:00.668Z,28.91
2022-08-09T22:36:04.036Z,28.93
2022-08-09T22:38:07.971Z,29.15
2022-08-09T22:40:20.248Z,29.11
2022-08-09T22:42:23.455Z,28.91
2022-08-09T22:44:29.873Z,29.11
2022-08-09T22:48:13.477Z,29.12
2022-08-09T22:49:09.821Z,29.07
2022-08-09T22:51:17.889Z,29.21
2022-08-09T22:53:33.477Z,29.29
2022-08-09T22:56:31.052Z,29.24
2022-08-09T22:58:10.205Z,29.33
2022-08-09T23:00:23.706Z,29.42
2022-08-09T23:02:33.604Z,28.99
2022-08-09T23:04:38.178Z,29.00
2022-08-09T23:06:58.939Z,29.03
2022-08-09T23:09:01.772Z,29.35
2022-08-09T23:11:04.631Z,29.38
2022-08-09T23:13:12.905Z,29.15
2022-08-09T23:15:16.691Z,29.30
2022-08-09T23:17:19.608Z,29.12
2022-08-09T23:19:24.050Z,28.89
2022-08-09T23:21:32.790Z,28.89
2022-08-09T23:23:37.955Z,28.44
2022-08-09T23:25:40.756Z,28.82
2022-08-09T23:28:14.494Z,28.97
2022-08-09T23:30:08.143Z,28.80
2022-08-09T23:32:10.899Z,28.88
2022-08-09T23:34:13.760Z,28.99
2022-08-09T23:36:18.776Z,28.86
2022-08-09T23:38:22.569Z,28.80
2022-08-09T23:40:25.374Z,29.12
2022-08-09T23:42:28.267Z,28.48
2022-08-09T23:44:31.177Z,28.63
2022-08-09T23:46:34.338Z,28.66
2022-08-09T23:48:37.253Z,28.77
2022-08-09T23:50:40.216Z,28.84
2022-08-09T23:52:44.635Z,28.54
2022-08-09T23:54:49.583Z,28.88
2022-08-09T23:56:55.855Z,28.96
2022-08-09T23:58:59.409Z,28.83
